METAR Analyzer

一覧表示

Hello, Guest. (Login)

SCRM/TNM  -  エドゥアルド・フレイ・モンタルバ基地

観測日時
2021-01-27 15:00 (UTC) (30分前)
気温
2
露点
1
湿数
1
相対湿度
93.1%
QNH
986hPa
推定現地気圧
980.7hPa
推定海面気圧
986.2hPa
体感温度
-16.2
(無風時)
5.7
HI
0.7
気温前日比
+2
体感温度前日比
+5.9
HI前日比
+2.2
水平視程
>10000m
鉛直視程
データなし
雲底高度
2000ft AGL
V/I
VMC (VFR)
RVR
No RVR data
卓越風
18kt from 120°
ガスト
No gust
降水
報告なし
その他の天気
報告なし
散在する雲 @ 500ft AGL / 隙間のある雲 @ 2000ft AGL

SCRM 271500Z 12018KT 9999 SCT005 BKN020 02/01 Q0986 NOSIG

15.9msec